sensor_id;sensor_type;location;lat;lon;timestamp;pressure;altitude;pressure_sealevel;temperature;humidity
49949;BME280;35840;45.982;8.890;2024-03-25T00:00:19;97662.41;;;8.94;35.57
49949;BME280;35840;45.982;8.890;2024-03-25T00:02:46;97661.28;;;9.11;36.02
49949;BME280;35840;45.982;8.890;2024-03-25T00:05:12;97664.47;;;9.15;35.72
49949;BME280;35840;45.982;8.890;2024-03-25T00:07:41;97659.84;;;9.07;35.71
49949;BME280;35840;45.982;8.890;2024-03-25T00:10:07;97658.50;;;9.02;35.48
49949;BME280;35840;45.982;8.890;2024-03-25T00:12:37;97649.69;;;9.06;34.77
49949;BME280;35840;45.982;8.890;2024-03-25T00:15:03;97657.91;;;9.24;35.28
49949;BME280;35840;45.982;8.890;2024-03-25T00:17:29;97659.88;;;9.33;35.36
49949;BME280;35840;45.982;8.890;2024-03-25T00:19:55;97647.25;;;9.43;35.50
49949;BME280;35840;45.982;8.890;2024-03-25T00:22:21;97630.00;;;9.45;36.14
49949;BME280;35840;45.982;8.890;2024-03-25T00:24:48;97644.44;;;9.59;35.78
49949;BME280;35840;45.982;8.890;2024-03-25T00:27:14;97631.34;;;9.25;35.14
49949;BME280;35840;45.982;8.890;2024-03-25T00:29:40;97631.44;;;9.23;35.80
49949;BME280;35840;45.982;8.890;2024-03-25T00:32:06;97641.28;;;9.04;34.35
49949;BME280;35840;45.982;8.890;2024-03-25T00:34:33;97638.78;;;8.89;35.48
49949;BME280;35840;45.982;8.890;2024-03-25T00:36:59;97653.28;;;8.63;36.25
49949;BME280;35840;45.982;8.890;2024-03-25T00:39:26;97648.09;;;8.77;35.58
49949;BME280;35840;45.982;8.890;2024-03-25T00:41:53;97650.22;;;8.43;35.78
49949;BME280;35840;45.982;8.890;2024-03-25T00:44:19;97653.28;;;8.63;36.54
49949;BME280;35840;45.982;8.890;2024-03-25T00:46:44;97651.06;;;8.84;37.25
49949;BME280;35840;45.982;8.890;2024-03-25T00:49:10;97652.22;;;8.93;38.06
49949;BME280;35840;45.982;8.890;2024-03-25T00:51:37;97656.13;;;8.99;38.31
49949;BME280;35840;45.982;8.890;2024-03-25T00:54:03;97645.59;;;9.03;38.59
49949;BME280;35840;45.982;8.890;2024-03-25T00:56:29;97651.50;;;8.91;38.73
49949;BME280;35840;45.982;8.890;2024-03-25T00:58:56;97645.75;;;8.87;39.23
49949;BME280;35840;45.982;8.890;2024-03-25T01:01:24;97641.69;;;8.57;38.65
49949;BME280;35840;45.982;8.890;2024-03-25T01:03:50;97642.38;;;8.47;38.50
49949;BME280;35840;45.982;8.890;2024-03-25T01:06:16;97643.88;;;8.22;39.08
49949;BME280;35840;45.982;8.890;2024-03-25T01:08:41;97637.75;;;8.24;39.81
49949;BME280;35840;45.982;8.890;2024-03-25T01:11:07;97639.22;;;7.87;39.19
49949;BME280;35840;45.982;8.890;2024-03-25T01:13:33;97638.03;;;7.64;39.69
49949;BME280;35840;45.982;8.890;2024-03-25T01:15:59;97646.63;;;7.63;40.24
49949;BME280;35840;45.982;8.890;2024-03-25T01:18:25;97641.41;;;7.50;40.32
49949;BME280;35840;45.982;8.890;2024-03-25T01:20:50;97636.31;;;7.64;40.04
49949;BME280;35840;45.982;8.890;2024-03-25T01:23:16;97633.00;;;7.33;40.28
49949;BME280;35840;45.982;8.890;2024-03-25T01:25:42;97631.09;;;7.66;40.84
49949;BME280;35840;45.982;8.890;2024-03-25T01:28:08;97627.63;;;7.52;40.15
49949;BME280;35840;45.982;8.890;2024-03-25T01:30:33;97626.75;;;7.09;41.49
49949;BME280;35840;45.982;8.890;2024-03-25T01:33:01;97622.50;;;7.23;41.07
49949;BME280;35840;45.982;8.890;2024-03-25T01:35:27;97627.63;;;7.52;40.82
49949;BME280;35840;45.982;8.890;2024-03-25T01:37:54;97630.88;;;7.11;42.83
49949;BME280;35840;45.982;8.890;2024-03-25T01:40:19;97635.00;;;7.28;42.49
49949;BME280;35840;45.982;8.890;2024-03-25T01:42:59;97612.94;;;6.82;42.38
49949;BME280;35840;45.982;8.890;2024-03-25T01:45:27;97623.44;;;6.78;42.28
49949;BME280;35840;45.982;8.890;2024-03-25T01:47:56;97621.81;;;6.91;41.93
49949;BME280;35840;45.982;8.890;2024-03-25T01:50:24;97615.47;;;6.68;42.67
49949;BME280;35840;45.982;8.890;2024-03-25T01:52:50;97621.50;;;7.12;42.39
49949;BME280;35840;45.982;8.890;2024-03-25T01:55:20;97628.56;;;6.78;43.13
49949;BME280;35840;45.982;8.890;2024-03-25T01:57:47;97619.53;;;6.86;42.49
49949;BME280;35840;45.982;8.890;2024-03-25T02:00:14;97619.47;;;6.42;43.01
49949;BME280;35840;45.982;8.890;2024-03-25T02:02:45;97622.41;;;6.19;43.45
49949;BME280;35840;45.982;8.890;2024-03-25T02:05:16;97621.13;;;6.73;42.29
49949;BME280;35840;45.982;8.890;2024-03-25T02:07:43;97619.03;;;6.65;41.99
49949;BME280;35840;45.982;8.890;2024-03-25T02:10:09;97621.03;;;6.75;42.70
49949;BME280;35840;45.982;8.890;2024-03-25T02:12:37;97621.03;;;6.75;43.47
49949;BME280;35840;45.982;8.890;2024-03-25T02:15:05;97617.53;;;6.61;44.39
49949;BME280;35840;45.982;8.890;2024-03-25T02:17:31;97614.16;;;6.91;44.27
49949;BME280;35840;45.982;8.890;2024-03-25T02:19:56;97621.47;;;6.67;43.21
49949;BME280;35840;45.982;8.890;2024-03-25T02:22:22;97621.03;;;6.75;42.71
49949;BME280;35840;45.982;8.890;2024-03-25T02:24:51;97612.56;;;6.74;42.56
49949;BME280;35840;45.982;8.890;2024-03-25T02:27:18;97616.69;;;6.77;42.94
49949;BME280;35840;45.982;8.890;2024-03-25T02:29:44;97621.09;;;6.59;43.36
49949;BME280;35840;45.982;8.890;2024-03-25T02:32:10;97617.66;;;6.74;43.29
49949;BME280;35840;45.982;8.890;2024-03-25T02:34:44;97617.19;;;6.98;43.89
49949;BME280;35840;45.982;8.890;2024-03-25T02:37:11;97617.38;;;7.09;43.86
49949;BME280;35840;45.982;8.890;2024-03-25T02:39:37;97613.91;;;7.10;43.49
49949;BME280;35840;45.982;8.890;2024-03-25T02:42:03;97619.75;;;6.98;43.85
49949;BME280;35840;45.982;8.890;2024-03-25T02:44:30;97623.91;;;6.84;44.07
49949;BME280;35840;45.982;8.890;2024-03-25T02:46:56;97619.44;;;6.88;44.27
49949;BME280;35840;45.982;8.890;2024-03-25T02:49:22;97621.09;;;6.89;43.95
49949;BME280;35840;45.982;8.890;2024-03-25T02:51:48;97612.88;;;6.84;43.25
49949;BME280;35840;45.982;8.890;2024-03-25T02:54:14;97607.34;;;7.06;42.83
49949;BME280;35840;45.982;8.890;2024-03-25T02:56:40;97608.97;;;7.21;42.84
49949;BME280;35840;45.982;8.890;2024-03-25T02:59:06;97611.72;;;7.33;43.68
49949;BME280;35840;45.982;8.890;2024-03-25T03:01:32;97611.91;;;7.30;43.82
49949;BME280;35840;45.982;8.890;2024-03-25T03:03:58;97621.88;;;6.75;44.76
49949;BME280;35840;45.982;8.890;2024-03-25T03:06:24;97615.72;;;6.94;44.45
49949;BME280;35840;45.982;8.890;2024-03-25T03:08:49;97612.66;;;6.26;44.84
49949;BME280;35840;45.982;8.890;2024-03-25T03:11:15;97625.22;;;6.61;44.14
49949;BME280;35840;45.982;8.890;2024-03-25T03:13:41;97627.13;;;6.42;43.63
49949;BME280;35840;45.982;8.890;2024-03-25T03:16:07;97620.69;;;6.50;43.83
49949;BME280;35840;45.982;8.890;2024-03-25T03:18:33;97624.88;;;6.21;44.11
49949;BME280;35840;45.982;8.890;2024-03-25T03:20:59;97622.16;;;6.24;44.77
49949;BME280;35840;45.982;8.890;2024-03-25T03:23:25;97625.66;;;6.37;44.38
49949;BME280;35840;45.982;8.890;2024-03-25T03:25:50;97613.69;;;6.54;43.75
49949;BME280;35840;45.982;8.890;2024-03-25T03:28:17;97604.13;;;6.11;43.71
49949;BME280;35840;45.982;8.890;2024-03-25T03:30:43;97613.69;;;6.54;42.79
49949;BME280;35840;45.982;8.890;2024-03-25T03:33:09;97614.53;;;6.38;43.57
49949;BME280;35840;45.982;8.890;2024-03-25T03:35:35;97607.16;;;6.64;43.30
49949;BME280;35840;45.982;8.890;2024-03-25T03:38:02;97624.38;;;6.91;43.43
49949;BME280;35840;45.982;8.890;2024-03-25T03:40:28;97621.22;;;7.02;42.95
49949;BME280;35840;45.982;8.890;2024-03-25T03:42:55;97608.78;;;6.96;43.58
49949;BME280;35840;45.982;8.890;2024-03-25T03:45:24;97610.13;;;6.87;43.86
49949;BME280;35840;45.982;8.890;2024-03-25T03:47:50;97604.22;;;6.86;43.93
49949;BME280;35840;45.982;8.890;2024-03-25T03:50:16;97593.88;;;5.79;44.83
49949;BME280;35840;45.982;8.890;2024-03-25T03:52:42;97607.66;;;5.93;44.70
49949;BME280;35840;45.982;8.890;2024-03-25T03:55:08;97606.72;;;5.78;44.46
49949;BME280;35840;45.982;8.890;2024-03-25T03:57:34;97610.03;;;5.80;44.78
49949;BME280;35840;45.982;8.890;2024-03-25T04:00:00;97609.09;;;5.81;46.29
49949;BME280;35840;45.982;8.890;2024-03-25T04:02:28;97614.28;;;5.95;46.31
49949;BME280;35840;45.982;8.890;2024-03-25T04:04:56;97611.50;;;5.84;47.06
49949;BME280;35840;45.982;8.890;2024-03-25T04:07:22;97619.28;;;5.98;47.49
49949;BME280;35840;45.982;8.890;2024-03-25T04:09:55;97620.41;;;6.25;47.22
49949;BME280;35840;45.982;8.890;2024-03-25T04:12:21;97617.63;;;6.13;47.75
49949;BME280;35840;45.982;8.890;2024-03-25T04:14:47;97621.66;;;5.52;48.81
49949;BME280;35840;45.982;8.890;2024-03-25T04:17:14;97625.88;;;5.69;46.58
49949;BME280;35840;45.982;8.890;2024-03-25T04:19:41;97625.09;;;5.68;46.56
49949;BME280;35840;45.982;8.890;2024-03-25T04:22:07;97620.38;;;5.77;46.47
49949;BME280;35840;45.982;8.890;2024-03-25T04:24:33;97623.31;;;5.53;46.48
49949;BME280;35840;45.982;8.890;2024-03-25T04:27:00;97626.66;;;5.38;45.89
49949;BME280;35840;45.982;8.890;2024-03-25T04:29:26;97636.81;;;5.04;46.30
49949;BME280;35840;45.982;8.890;2024-03-25T04:31:51;97630.84;;;5.05;43.86
49949;BME280;35840;45.982;8.890;2024-03-25T04:34:17;97634.31;;;5.38;44.32
49949;BME280;35840;45.982;8.890;2024-03-25T04:36:43;97621.50;;;5.55;44.00
49949;BME280;35840;45.982;8.890;2024-03-25T04:39:09;97633.88;;;5.79;44.00
49949;BME280;35840;45.982;8.890;2024-03-25T04:41:37;97633.38;;;5.72;45.34
49949;BME280;35840;45.982;8.890;2024-03-25T04:44:02;97631.88;;;5.68;46.69
49949;BME280;35840;45.982;8.890;2024-03-25T04:46:28;97626.22;;;5.29;48.32
49949;BME280;35840;45.982;8.890;2024-03-25T04:48:54;97641.31;;;4.81;46.38
49949;BME280;35840;45.982;8.890;2024-03-25T04:51:20;97634.06;;;4.91;46.65
49949;BME280;35840;45.982;8.890;2024-03-25T04:53:46;97638.72;;;5.00;46.73
49949;BME280;35840;45.982;8.890;2024-03-25T04:56:12;97644.25;;;5.42;46.11
49949;BME280;35840;45.982;8.890;2024-03-25T04:58:38;97640.16;;;5.56;46.81
49949;BME280;35840;45.982;8.890;2024-03-25T05:01:04;97643.31;;;5.77;46.44
49949;BME280;35840;45.982;8.890;2024-03-25T05:03:30;97637.59;;;5.40;48.08
49949;BME280;35840;45.982;8.890;2024-03-25T05:05:55;97647.59;;;5.27;48.47
49949;BME280;35840;45.982;8.890;2024-03-25T05:08:22;97638.97;;;5.63;48.23
49949;BME280;35840;45.982;8.890;2024-03-25T05:10:48;97637.09;;;5.82;47.86
49949;BME280;35840;45.982;8.890;2024-03-25T05:13:14;97640.50;;;5.99;47.27
49949;BME280;35840;45.982;8.890;2024-03-25T05:15:39;97633.75;;;5.98;47.16
49949;BME280;35840;45.982;8.890;2024-03-25T05:18:06;97635.22;;;6.02;47.29
49949;BME280;35840;45.982;8.890;2024-03-25T05:20:31;97640.31;;;5.86;46.90
49949;BME280;35840;45.982;8.890;2024-03-25T05:22:58;97636.88;;;5.54;46.11
49949;BME280;35840;45.982;8.890;2024-03-25T05:25:24;97643.50;;;5.07;45.27
49949;BME280;35840;45.982;8.890;2024-03-25T05:27:54;97661.16;;;5.10;44.77
49949;BME280;35840;45.982;8.890;2024-03-25T05:30:20;97653.91;;;5.02;45.02
49949;BME280;35840;45.982;8.890;2024-03-25T05:32:47;97661.94;;;5.45;45.34
49949;BME280;35840;45.982;8.890;2024-03-25T05:35:12;97661.19;;;5.77;45.68
49949;BME280;35840;45.982;8.890;2024-03-25T05:37:38;97657.41;;;5.84;45.25
49949;BME280;35840;45.982;8.890;2024-03-25T05:40:05;97659.66;;;5.90;44.79
49949;BME280;35840;45.982;8.890;2024-03-25T05:42:30;97655.56;;;6.03;45.06
49949;BME280;35840;45.982;8.890;2024-03-25T05:44:56;97650.50;;;5.86;44.05
49949;BME280;35840;45.982;8.890;2024-03-25T05:47:22;97656.50;;;6.02;44.28
49949;BME280;35840;45.982;8.890;2024-03-25T05:49:48;97659.84;;;6.19;44.97
49949;BME280;35840;45.982;8.890;2024-03-25T05:52:14;97658.00;;;5.89;45.93
49949;BME280;35840;45.982;8.890;2024-03-25T05:54:39;97662.50;;;6.01;45.87
49949;BME280;35840;45.982;8.890;2024-03-25T05:57:05;97668.78;;;5.94;46.19
49949;BME280;35840;45.982;8.890;2024-03-25T05:59:32;97667.31;;;5.90;46.52
49949;BME280;35840;45.982;8.890;2024-03-25T06:01:58;97666.47;;;5.90;46.35
49949;BME280;35840;45.982;8.890;2024-03-25T06:04:24;97663.19;;;5.88;45.69
49949;BME280;35840;45.982;8.890;2024-03-25T06:06:49;97660.63;;;5.88;46.02
49949;BME280;35840;45.982;8.890;2024-03-25T06:09:15;97674.34;;;6.18;45.30
49949;BME280;35840;45.982;8.890;2024-03-25T06:11:41;97670.66;;;6.24;44.70
49949;BME280;35840;45.982;8.890;2024-03-25T06:14:07;97672.75;;;6.32;45.97
49949;BME280;35840;45.982;8.890;2024-03-25T06:16:33;97675.84;;;6.23;46.83
49949;BME280;35840;45.982;8.890;2024-03-25T06:18:59;97673.59;;;6.32;45.24
49949;BME280;35840;45.982;8.890;2024-03-25T06:21:25;97678.84;;;6.29;45.40
49949;BME280;35840;45.982;8.890;2024-03-25T06:23:50;97677.97;;;6.30;45.55
49949;BME280;35840;45.982;8.890;2024-03-25T06:26:17;97675.88;;;6.53;46.29
49949;BME280;35840;45.982;8.890;2024-03-25T06:28:43;97674.22;;;6.68;45.72
49949;BME280;35840;45.982;8.890;2024-03-25T06:31:08;97674.53;;;6.78;45.63
49949;BME280;35840;45.982;8.890;2024-03-25T06:33:53;97671.34;;;6.88;45.73
49949;BME280;35840;45.982;8.890;2024-03-25T06:36:38;97672.06;;;7.06;45.44
49949;BME280;35840;45.982;8.890;2024-03-25T06:39:03;97672.44;;;7.15;45.07
49949;BME280;35840;45.982;8.890;2024-03-25T06:41:29;97677.75;;;7.26;45.35
49949;BME280;35840;45.982;8.890;2024-03-25T06:43:55;97680.69;;;7.34;45.29
49949;BME280;35840;45.982;8.890;2024-03-25T06:46:21;97673.28;;;7.44;44.85
49949;BME280;35840;45.982;8.890;2024-03-25T06:48:47;97683.06;;;7.52;44.16
49949;BME280;35840;45.982;8.890;2024-03-25T06:51:13;97681.72;;;7.61;43.36
49949;BME280;35840;45.982;8.890;2024-03-25T06:53:38;97683.97;;;7.51;44.62
49949;BME280;35840;45.982;8.890;2024-03-25T06:56:04;97680.41;;;7.24;42.03
49949;BME280;35840;45.982;8.890;2024-03-25T06:58:30;97675.09;;;7.28;42.10
49949;BME280;35840;45.982;8.890;2024-03-25T07:01:03;97682.88;;;7.40;43.20
49949;BME280;35840;45.982;8.890;2024-03-25T07:03:29;97683.34;;;7.62;44.09
49949;BME280;35840;45.982;8.890;2024-03-25T07:05:55;97679.44;;;7.70;43.80
49949;BME280;35840;45.982;8.890;2024-03-25T07:08:21;97674.28;;;7.85;45.00
49949;BME280;35840;45.982;8.890;2024-03-25T07:10:47;97671.63;;;7.86;43.57
49949;BME280;35840;45.982;8.890;2024-03-25T07:13:13;97668.19;;;7.87;43.31
49949;BME280;35840;45.982;8.890;2024-03-25T07:15:40;97674.78;;;7.77;42.46
49949;BME280;35840;45.982;8.890;2024-03-25T07:18:05;97670.72;;;7.87;42.81
49949;BME280;35840;45.982;8.890;2024-03-25T07:20:32;97669.28;;;7.69;41.84
49949;BME280;35840;45.982;8.890;2024-03-25T07:22:58;97680.59;;;7.79;40.25
49949;BME280;35840;45.982;8.890;2024-03-25T07:25:25;97683.44;;;7.89;41.94
49949;BME280;35840;45.982;8.890;2024-03-25T07:27:51;97686.97;;;8.01;41.43
49949;BME280;35840;45.982;8.890;2024-03-25T07:30:20;97688.34;;;8.06;40.89
49949;BME280;35840;45.982;8.890;2024-03-25T07:32:50;97680.84;;;8.03;39.48
49949;BME280;35840;45.982;8.890;2024-03-25T07:35:16;97685.03;;;8.19;40.20
49949;BME280;35840;45.982;8.890;2024-03-25T07:37:46;97680.09;;;8.16;39.26
49949;BME280;35840;45.982;8.890;2024-03-25T07:40:11;97689.94;;;8.36;39.89
49949;BME280;35840;45.982;8.890;2024-03-25T07:42:38;97677.56;;;8.43;38.43
49949;BME280;35840;45.982;8.890;2024-03-25T07:45:04;97690.97;;;8.34;40.14
49949;BME280;35840;45.982;8.890;2024-03-25T07:47:32;97684.91;;;8.35;40.20
49949;BME280;35840;45.982;8.890;2024-03-25T07:49:58;97682.78;;;8.41;41.02
49949;BME280;35840;45.982;8.890;2024-03-25T07:52:27;97684.28;;;8.46;41.20
49949;BME280;35840;45.982;8.890;2024-03-25T07:54:54;97698.97;;;8.56;39.07
49949;BME280;35840;45.982;8.890;2024-03-25T07:57:20;97694.66;;;8.57;38.03
49949;BME280;35840;45.982;8.890;2024-03-25T07:59:46;97694.38;;;8.61;38.32
49949;BME280;35840;45.982;8.890;2024-03-25T08:02:12;97690.22;;;8.73;39.54
49949;BME280;35840;45.982;8.890;2024-03-25T08:04:38;97693.69;;;8.72;38.22
49949;BME280;35840;45.982;8.890;2024-03-25T08:07:04;97696.59;;;8.81;36.55
49949;BME280;35840;45.982;8.890;2024-03-25T08:09:31;97689.72;;;8.81;37.42
49949;BME280;35840;45.982;8.890;2024-03-25T08:11:57;97689.75;;;8.94;37.72
49949;BME280;35840;45.982;8.890;2024-03-25T08:14:22;97681.59;;;9.02;37.86
49949;BME280;35840;45.982;8.890;2024-03-25T08:16:49;97683.84;;;9.06;36.92
49949;BME280;35840;45.982;8.890;2024-03-25T08:19:15;97687.22;;;9.07;36.25
49949;BME280;35840;45.982;8.890;2024-03-25T08:21:41;97692.88;;;9.12;34.83
49949;BME280;35840;45.982;8.890;2024-03-25T08:24:07;97688.44;;;9.01;33.41
49949;BME280;35840;45.982;8.890;2024-03-25T08:26:33;97683.31;;;9.14;34.55
49949;BME280;35840;45.982;8.890;2024-03-25T08:28:59;97691.34;;;9.22;36.95
49949;BME280;35840;45.982;8.890;2024-03-25T08:31:24;97684.69;;;9.45;36.72
49949;BME280;35840;45.982;8.890;2024-03-25T08:33:50;97681.19;;;9.46;36.24
49949;BME280;35840;45.982;8.890;2024-03-25T08:36:16;97680.88;;;9.51;35.51
49949;BME280;35840;45.982;8.890;2024-03-25T08:38:44;97677.09;;;9.70;36.81
49949;BME280;35840;45.982;8.890;2024-03-25T08:41:10;97678.00;;;9.69;36.06
49949;BME280;35840;45.982;8.890;2024-03-25T08:43:36;97677.00;;;9.71;35.32
49949;BME280;35840;45.982;8.890;2024-03-25T08:46:02;97673.28;;;9.75;35.66
49949;BME280;35840;45.982;8.890;2024-03-25T08:48:29;97678.69;;;9.83;35.91
49949;BME280;35840;45.982;8.890;2024-03-25T08:50:55;97671.63;;;9.87;35.12
49949;BME280;35840;45.982;8.890;2024-03-25T08:53:21;97668.00;;;10.03;34.60
49949;BME280;35840;45.982;8.890;2024-03-25T08:55:48;97665.31;;;10.04;34.07
49949;BME280;35840;45.982;8.890;2024-03-25T08:58:14;97669.03;;;10.00;33.77
49949;BME280;35840;45.982;8.890;2024-03-25T09:00:43;97666.56;;;9.98;33.14
49949;BME280;35840;45.982;8.890;2024-03-25T09:03:09;97660.72;;;9.96;32.97
49949;BME280;35840;45.982;8.890;2024-03-25T09:05:36;97650.09;;;10.14;34.07
49949;BME280;35840;45.982;8.890;2024-03-25T09:08:05;97657.53;;;10.30;34.38
49949;BME280;35840;45.982;8.890;2024-03-25T09:10:32;97644.19;;;10.25;34.93
49949;BME280;35840;45.982;8.890;2024-03-25T09:13:16;97650.38;;;10.35;35.51
49949;BME280;35840;45.982;8.890;2024-03-25T09:15:42;97650.72;;;10.42;35.00
49949;BME280;35840;45.982;8.890;2024-03-25T09:18:08;97634.63;;;10.40;33.87
49949;BME280;35840;45.982;8.890;2024-03-25T09:20:34;97643.84;;;10.42;34.00
49949;BME280;35840;45.982;8.890;2024-03-25T09:23:00;97641.88;;;10.46;34.07
49949;BME280;35840;45.982;8.890;2024-03-25T09:25:26;97636.41;;;10.75;35.69
49949;BME280;35840;45.982;8.890;2024-03-25T09:27:52;97643.31;;;10.85;35.04
49949;BME280;35840;45.982;8.890;2024-03-25T09:30:17;97644.34;;;10.83;33.98
49949;BME280;35840;45.982;8.890;2024-03-25T09:32:46;97638.66;;;10.91;34.90
49949;BME280;35840;45.982;8.890;2024-03-25T09:35:13;97638.09;;;10.98;36.25
49949;BME280;35840;45.982;8.890;2024-03-25T09:37:39;97639.63;;;11.12;35.78
49949;BME280;35840;45.982;8.890;2024-03-25T09:40:05;97645.63;;;11.13;34.37
49949;BME280;35840;45.982;8.890;2024-03-25T09:45:02;97637.88;;;11.01;33.14
49949;BME280;35840;45.982;8.890;2024-03-25T09:47:31;97632.13;;;10.98;32.25
49949;BME280;35840;45.982;8.890;2024-03-25T09:49:59;97635.19;;;11.03;32.40
49949;BME280;35840;45.982;8.890;2024-03-25T09:52:26;97630.41;;;11.21;32.35
49949;BME280;35840;45.982;8.890;2024-03-25T09:54:52;97625.88;;;11.25;35.17
49949;BME280;35840;45.982;8.890;2024-03-25T09:57:18;97620.13;;;11.66;32.70
49949;BME280;35840;45.982;8.890;2024-03-25T09:59:44;97626.94;;;11.79;30.76
49949;BME280;35840;45.982;8.890;2024-03-25T10:02:11;97631.25;;;11.78;32.92
49949;BME280;35840;45.982;8.890;2024-03-25T10:04:44;97624.25;;;11.69;30.87
49949;BME280;35840;45.982;8.890;2024-03-25T10:07:21;97626.91;;;11.90;32.44
49949;BME280;35840;45.982;8.890;2024-03-25T10:09:48;97623.19;;;12.05;31.35
49949;BME280;35840;45.982;8.890;2024-03-25T10:12:15;97622.81;;;12.10;31.15
49949;BME280;35840;45.982;8.890;2024-03-25T10:14:41;97614.38;;;12.08;29.53
49949;BME280;35840;45.982;8.890;2024-03-25T10:17:06;97613.91;;;12.14;28.75
49949;BME280;35840;45.982;8.890;2024-03-25T10:19:33;97611.94;;;12.07;30.28
49949;BME280;35840;45.982;8.890;2024-03-25T10:24:45;97598.16;;;12.29;29.30
49949;BME280;35840;45.982;8.890;2024-03-25T10:27:18;97599.50;;;12.44;28.33
49949;BME280;35840;45.982;8.890;2024-03-25T10:29:53;97600.19;;;12.25;27.35
49949;BME280;35840;45.982;8.890;2024-03-25T10:32:21;97598.88;;;12.31;27.69
49949;BME280;35840;45.982;8.890;2024-03-25T10:34:50;97581.75;;;12.30;28.04
49949;BME280;35840;45.982;8.890;2024-03-25T10:37:17;97588.00;;;12.48;27.98
49949;BME280;35840;45.982;8.890;2024-03-25T10:39:50;97582.53;;;12.42;26.44
49949;BME280;35840;45.982;8.890;2024-03-25T10:42:21;97584.88;;;12.45;27.87
49949;BME280;35840;45.982;8.890;2024-03-25T10:44:47;97579.53;;;12.57;28.47
49949;BME280;35840;45.982;8.890;2024-03-25T10:47:19;97581.75;;;12.62;26.99
49949;BME280;35840;45.982;8.890;2024-03-25T10:50:12;97584.13;;;12.54;25.97
49949;BME280;35840;45.982;8.890;2024-03-25T10:52:42;97580.34;;;12.58;26.72
49949;BME280;35840;45.982;8.890;2024-03-25T10:55:08;97574.00;;;12.62;26.12
49949;BME280;35840;45.982;8.890;2024-03-25T10:57:35;97584.31;;;12.62;25.91
49949;BME280;35840;45.982;8.890;2024-03-25T11:00:02;97564.44;;;12.53;25.56
49949;BME280;35840;45.982;8.890;2024-03-25T11:02:30;97567.66;;;12.66;27.03
49949;BME280;35840;45.982;8.890;2024-03-25T11:04:56;97560.84;;;12.86;26.79
49949;BME280;35840;45.982;8.890;2024-03-25T11:07:30;97543.91;;;12.94;27.26
49949;BME280;35840;45.982;8.890;2024-03-25T11:10:04;97546.72;;;13.12;26.01
49949;BME280;35840;45.982;8.890;2024-03-25T11:12:37;97536.72;;;13.28;26.69
49949;BME280;35840;45.982;8.890;2024-03-25T11:15:07;97528.00;;;13.50;27.20
49949;BME280;35840;45.982;8.890;2024-03-25T11:17:34;97528.84;;;13.60;26.10
49949;BME280;35840;45.982;8.890;2024-03-25T11:20:15;97530.06;;;13.56;26.65
49949;BME280;35840;45.982;8.890;2024-03-25T11:22:52;97524.16;;;13.35;25.02
49949;BME280;35840;45.982;8.890;2024-03-25T11:25:20;97521.84;;;13.11;24.88
49949;BME280;35840;45.982;8.890;2024-03-25T11:27:47;97516.38;;;13.04;26.08
49949;BME280;35840;45.982;8.890;2024-03-25T11:30:14;97508.78;;;13.02;25.66
49949;BME280;35840;45.982;8.890;2024-03-25T11:32:51;97508.19;;;13.20;27.35
49949;BME280;35840;45.982;8.890;2024-03-25T11:35:17;97501.69;;;13.25;26.36
49949;BME280;35840;45.982;8.890;2024-03-25T11:37:43;97506.97;;;13.24;26.49
49949;BME280;35840;45.982;8.890;2024-03-25T11:40:10;97506.00;;;13.25;23.67
49949;BME280;35840;45.982;8.890;2024-03-25T11:42:38;97493.88;;;13.06;24.61
49949;BME280;35840;45.982;8.890;2024-03-25T11:45:06;97493.50;;;13.20;24.92
49949;BME280;35840;45.982;8.890;2024-03-25T11:47:32;97491.63;;;13.32;26.92
49949;BME280;35840;45.982;8.890;2024-03-25T11:49:58;97483.75;;;13.34;25.74
49949;BME280;35840;45.982;8.890;2024-03-25T11:52:29;97491.22;;;13.27;24.75
49949;BME280;35840;45.982;8.890;2024-03-25T11:54:56;97485.22;;;13.26;24.23
49949;BME280;35840;45.982;8.890;2024-03-25T11:57:22;97477.34;;;13.28;26.39
49949;BME280;35840;45.982;8.890;2024-03-25T11:59:48;97478.81;;;13.62;26.61
49949;BME280;35840;45.982;8.890;2024-03-25T12:02:16;97469.88;;;13.66;25.79
49949;BME280;35840;45.982;8.890;2024-03-25T12:04:43;97472.47;;;13.75;25.91
49949;BME280;35840;45.982;8.890;2024-03-25T12:07:11;97469.59;;;13.78;24.90
49949;BME280;35840;45.982;8.890;2024-03-25T12:09:37;97464.84;;;13.64;23.88
49949;BME280;35840;45.982;8.890;2024-03-25T12:12:21;97467.72;;;13.71;22.67
49949;BME280;35840;45.982;8.890;2024-03-25T12:14:48;97467.81;;;13.79;26.17
49949;BME280;35840;45.982;8.890;2024-03-25T12:17:14;97463.88;;;14.04;25.29
49949;BME280;35840;45.982;8.890;2024-03-25T12:19:44;97462.38;;;14.11;26.08
49949;BME280;35840;45.982;8.890;2024-03-25T12:22:10;97459.66;;;14.13;25.65
49949;BME280;35840;45.982;8.890;2024-03-25T12:24:36;97461.44;;;14.12;25.70
49949;BME280;35840;45.982;8.890;2024-03-25T12:27:02;97459.28;;;14.08;22.80
49949;BME280;35840;45.982;8.890;2024-03-25T12:29:28;97445.22;;;14.20;26.79
49949;BME280;35840;45.982;8.890;2024-03-25T12:31:55;97449.16;;;14.24;25.64
49949;BME280;35840;45.982;8.890;2024-03-25T12:34:21;97453.13;;;14.28;27.38
49949;BME280;35840;45.982;8.890;2024-03-25T12:36:50;97444.41;;;14.29;26.35
49949;BME280;35840;45.982;8.890;2024-03-25T12:39:19;97440.59;;;14.34;25.69
49949;BME280;35840;45.982;8.890;2024-03-25T12:41:45;97443.16;;;14.43;26.80
49949;BME280;35840;45.982;8.890;2024-03-25T12:44:14;97447.19;;;14.56;26.63
49949;BME280;35840;45.982;8.890;2024-03-25T12:46:40;97441.88;;;14.67;25.17
49949;BME280;35840;45.982;8.890;2024-03-25T12:49:06;97440.66;;;14.71;25.66
49949;BME280;35840;45.982;8.890;2024-03-25T12:51:32;97415.63;;;14.52;24.75
49949;BME280;35840;45.982;8.890;2024-03-25T12:53:58;97428.13;;;14.67;24.00
49949;BME280;35840;45.982;8.890;2024-03-25T12:56:24;97414.00;;;14.51;26.08
49949;BME280;35840;45.982;8.890;2024-03-25T12:58:50;97430.88;;;14.65;24.96
49949;BME280;35840;45.982;8.890;2024-03-25T13:01:16;97423.91;;;14.66;27.29
49949;BME280;35840;45.982;8.890;2024-03-25T13:03:42;97417.28;;;14.53;24.15
49949;BME280;35840;45.982;8.890;2024-03-25T13:06:08;97424.50;;;14.40;25.43
49949;BME280;35840;45.982;8.890;2024-03-25T13:08:34;97415.53;;;14.44;24.89
49949;BME280;35840;45.982;8.890;2024-03-25T13:11:00;97417.97;;;14.45;23.83